Time;durP1;ratioP1;P1;durP2;ratioP2;P2;SDS_P1;SDS_P2;PMS_P1;PMS_P2;Temp;Humidity;BMP_temperature;BMP_pressure;BME280_temperature;BME280_humidity;BME280_pressure;Samples;Min_cycle;Max_cycle;Signal;HPM_P1;HPM_P2
2022/07/08 00:01:58;;;;;;;11.75;2.60;;;14.80;99.90;;;;;;5001884;28;20046;-43
2022/07/08 00:04:24;;;;;;;9.95;2.25;;;14.80;99.90;;;;;;5012290;28;20049;-43
2022/07/08 00:06:50;;;;;;;14.60;2.65;;;14.80;99.90;;;;;;5010357;28;20049;-44
2022/07/08 00:09:17;;;;;;;9.98;2.38;;;14.80;99.90;;;;;;5013874;28;20500;-45
2022/07/08 00:11:43;;;;;;;12.88;2.80;;;14.80;99.90;;;;;;5007596;28;20049;-44
2022/07/08 00:14:10;;;;;;;12.73;3.10;;;14.70;99.90;;;;;;5007926;28;20056;-44
2022/07/08 00:16:40;;;;;;;9.25;2.92;;;14.80;99.90;;;;;;5004774;28;20049;-44
2022/07/08 00:19:07;;;;;;;10.70;3.30;;;14.80;99.90;;;;;;5007729;28;20053;-43
2022/07/08 00:21:33;;;;;;;8.43;2.13;;;14.80;99.90;;;;;;5008839;28;20544;-44
2022/07/08 00:24:00;;;;;;;9.30;2.08;;;14.70;99.90;;;;;;5015425;28;20052;-45
2022/07/08 00:26:25;;;;;;;14.00;2.55;;;14.70;99.90;;;;;;5015857;28;20489;-44
2022/07/08 00:28:51;;;;;;;10.52;2.38;;;14.60;99.90;;;;;;5011009;28;20046;-44
2022/07/08 00:31:17;;;;;;;8.60;2.58;;;14.60;99.90;;;;;;5013716;28;20389;-44
2022/07/08 00:33:42;;;;;;;8.88;3.25;;;14.60;99.90;;;;;;5002485;28;20192;-43
2022/07/08 00:36:08;;;;;;;10.52;2.60;;;14.50;99.90;;;;;;5012079;28;20046;-48
2022/07/08 00:38:34;;;;;;;16.67;2.88;;;14.50;99.90;;;;;;5013174;28;20072;-44
2022/07/08 00:41:00;;;;;;;12.32;2.60;;;14.50;99.90;;;;;;5008464;28;20057;-44
2022/07/08 00:43:26;;;;;;;11.88;3.10;;;14.50;99.90;;;;;;5000664;28;20046;-43
2022/07/08 00:45:52;;;;;;;11.40;2.88;;;14.50;99.90;;;;;;5012571;28;20595;-46
2022/07/08 00:48:17;;;;;;;12.18;2.65;;;14.50;99.90;;;;;;4985905;28;20060;-43
2022/07/08 00:50:43;;;;;;;9.88;2.40;;;14.50;99.90;;;;;;5014380;28;20049;-44
2022/07/08 00:53:10;;;;;;;8.25;2.47;;;14.50;99.90;;;;;;5015607;28;20128;-44
2022/07/08 00:55:36;;;;;;;12.40;2.15;;;14.50;99.90;;;;;;5005814;28;20085;-43
2022/07/08 00:58:02;;;;;;;9.82;2.72;;;14.50;99.90;;;;;;5004846;28;20461;-43
2022/07/08 01:00:28;;;;;;;10.77;2.30;;;14.40;99.90;;;;;;4986476;28;20049;-43
2022/07/08 01:02:53;;;;;;;10.73;2.47;;;14.40;99.90;;;;;;5004592;28;20049;-44
2022/07/08 01:05:20;;;;;;;14.73;3.35;;;14.40;99.90;;;;;;5004143;28;20115;-44
2022/07/08 01:07:48;;;;;;;13.32;3.25;;;14.40;99.90;;;;;;5005083;28;20061;-45
2022/07/08 01:10:14;;;;;;;10.50;2.30;;;14.40;99.90;;;;;;5003907;28;20046;-45
2022/07/08 01:12:39;;;;;;;7.13;2.80;;;14.40;99.90;;;;;;5004519;28;20568;-45
2022/07/08 01:15:06;;;;;;;8.65;2.55;;;14.30;99.90;;;;;;5010479;28;20064;-43
2022/07/08 01:17:45;;;;;;;10.85;2.50;;;14.30;99.90;;;;;;5016763;28;20053;-43
2022/07/08 01:20:12;;;;;;;10.20;2.83;;;14.30;99.90;;;;;;5018212;28;20363;-43
2022/07/08 01:22:38;;;;;;;15.88;3.45;;;14.20;99.90;;;;;;5012554;28;20061;-43
2022/07/08 01:25:06;;;;;;;8.18;2.88;;;14.20;99.90;;;;;;5010480;28;20650;-42
2022/07/08 01:27:37;;;;;;;10.35;2.65;;;14.10;99.90;;;;;;5015342;28;20081;-43
2022/07/08 01:30:04;;;;;;;9.70;2.88;;;14.00;99.90;;;;;;5012553;28;20627;-44
2022/07/08 01:32:32;;;;;;;7.47;2.35;;;13.90;99.90;;;;;;5005804;28;20049;-45
2022/07/08 01:34:58;;;;;;;7.35;2.13;;;13.80;99.90;;;;;;5004403;28;20077;-44
2022/07/08 01:37:23;;;;;;;9.15;2.85;;;13.80;99.90;;;;;;5004212;28;20587;-45
2022/07/08 01:39:49;;;;;;;12.90;2.95;;;13.70;99.90;;;;;;4989256;28;20046;-45
2022/07/08 01:42:15;;;;;;;13.38;2.67;;;13.60;99.90;;;;;;5010120;28;20053;-44
2022/07/08 01:44:40;;;;;;;13.18;2.70;;;13.60;99.90;;;;;;5006853;28;20679;-45
2022/07/08 01:47:06;;;;;;;13.32;2.95;;;13.50;99.90;;;;;;5013413;28;20054;-44
2022/07/08 01:49:32;;;;;;;8.82;2.00;;;13.40;99.90;;;;;;5007298;28;20552;-43
2022/07/08 01:51:58;;;;;;;12.82;3.85;;;13.40;99.90;;;;;;5013728;28;20096;-43
2022/07/08 01:54:24;;;;;;;7.72;2.50;;;13.40;99.90;;;;;;5017283;28;20053;-43
2022/07/08 01:57:13;;;;;;;11.52;2.78;;;13.30;99.90;;;;;;5008741;28;20116;-45
2022/07/08 01:59:45;;;;;;;12.60;3.17;;;13.30;99.90;;;;;;5002848;28;20060;-42
2022/07/08 02:02:13;;;;;;;8.90;2.10;;;13.20;99.90;;;;;;5014589;28;20198;-43
2022/07/08 02:04:41;;;;;;;10.50;2.70;;;13.10;99.90;;;;;;5003012;28;20140;-43
2022/07/08 02:07:07;;;;;;;10.02;2.88;;;13.00;99.90;;;;;;5008651;28;20515;-42
2022/07/08 02:09:34;;;;;;;8.48;2.38;;;13.00;99.90;;;;;;4985240;28;20157;-44
2022/07/08 02:12:18;;;;;;;13.48;2.92;;;12.90;99.90;;;;;;5003852;28;20073;-43
2022/07/08 02:14:52;;;;;;;10.07;2.60;;;12.90;99.90;;;;;;5003656;28;20081;-44
2022/07/08 02:17:23;;;;;;;9.38;2.38;;;12.80;99.90;;;;;;4992619;28;20588;-44
2022/07/08 02:19:58;;;;;;;10.98;2.35;;;12.80;99.90;;;;;;5013976;28;20147;-43
2022/07/08 02:22:24;;;;;;;7.20;2.53;;;12.80;99.90;;;;;;5007825;28;20306;-43
2022/07/08 02:24:50;;;;;;;11.30;2.55;;;12.80;99.90;;;;;;5007074;28;20448;-43
2022/07/08 02:27:17;;;;;;;9.32;2.42;;;12.70;99.90;;;;;;5011431;28;20057;-43
2022/07/08 02:29:43;;;;;;;12.80;3.38;;;12.70;99.90;;;;;;5006464;28;20050;-43
2022/07/08 02:32:09;;;;;;;8.10;3.05;;;12.70;99.90;;;;;;5009907;28;20056;-44
2022/07/08 02:34:35;;;;;;;5.65;2.00;;;12.60;99.90;;;;;;4998284;28;20046;-42
2022/07/08 02:37:02;;;;;;;12.15;3.58;;;12.60;99.90;;;;;;5009700;28;20053;-45
2022/07/08 02:39:28;;;;;;;9.18;2.70;;;12.60;99.90;;;;;;5013641;28;20445;-45
2022/07/08 02:41:54;;;;;;;9.85;2.38;;;12.60;99.90;;;;;;5011650;28;20047;-43
2022/07/08 02:44:20;;;;;;;11.35;3.10;;;12.60;99.90;;;;;;5015106;28;20042;-45
2022/07/08 02:46:46;;;;;;;11.45;2.40;;;12.60;99.90;;;;;;5009087;28;20504;-45
2022/07/08 02:49:16;;;;;;;8.77;2.70;;;12.50;99.90;;;;;;5009476;28;20234;-44
2022/07/08 02:51:42;;;;;;;8.65;2.55;;;12.50;99.90;;;;;;4993217;28;20060;-46
2022/07/08 02:54:10;;;;;;;10.25;2.50;;;12.50;99.90;;;;;;5017157;28;20041;-46
2022/07/08 02:56:36;;;;;;;7.97;2.25;;;12.50;99.90;;;;;;5006102;28;20053;-45
2022/07/08 02:59:04;;;;;;;9.02;2.88;;;12.50;99.90;;;;;;5003305;28;20053;-45
2022/07/08 03:01:32;;;;;;;11.05;2.67;;;12.40;99.90;;;;;;5004657;28;20049;-47
2022/07/08 03:03:58;;;;;;;13.23;3.58;;;12.30;99.90;;;;;;4985245;28;20060;-45
2022/07/08 03:06:24;;;;;;;9.50;2.78;;;12.30;99.90;;;;;;5003822;28;20536;-44
2022/07/08 03:08:50;;;;;;;9.30;3.33;;;12.30;99.90;;;;;;5006851;28;20050;-44
2022/07/08 03:11:16;;;;;;;9.55;3.33;;;12.30;99.90;;;;;;5008931;28;20056;-43
2022/07/08 03:13:41;;;;;;;11.63;3.75;;;12.20;99.90;;;;;;5013739;28;20603;-43
2022/07/08 03:16:07;;;;;;;12.18;3.00;;;12.20;99.90;;;;;;5001912;28;20037;-43
2022/07/08 03:18:34;;;;;;;18.95;3.25;;;12.20;99.90;;;;;;5002908;28;20127;-44
2022/07/08 03:21:01;;;;;;;12.57;3.20;;;12.20;99.90;;;;;;5014586;28;20046;-43
2022/07/08 03:23:26;;;;;;;9.20;3.05;;;12.20;99.90;;;;;;5008744;28;20488;-43
2022/07/08 03:25:52;;;;;;;11.25;3.22;;;12.30;99.90;;;;;;5008528;28;20081;-42
2022/07/08 03:28:18;;;;;;;9.13;2.97;;;12.30;99.90;;;;;;5014296;28;20301;-43
2022/07/08 03:30:44;;;;;;;9.93;3.85;;;12.30;99.90;;;;;;5000940;28;20064;-42
2022/07/08 03:33:12;;;;;;;13.88;3.20;;;12.20;99.90;;;;;;5009651;28;20184;-42
2022/07/08 03:35:38;;;;;;;6.15;3.00;;;12.20;99.90;;;;;;5001597;28;20591;-43
2022/07/08 03:38:04;;;;;;;11.15;3.22;;;12.20;99.90;;;;;;5008283;28;20088;-43
2022/07/08 03:43:14;;;;;;;7.20;2.83;;;12.20;99.90;;;;;;4987148;28;20583;-44
2022/07/08 03:45:40;;;;;;;10.57;2.90;;;12.10;99.90;;;;;;4993723;28;20061;-44
2022/07/08 03:48:06;;;;;;;9.10;3.05;;;12.20;99.90;;;;;;5007958;28;20054;-42
2022/07/08 03:50:31;;;;;;;18.98;3.60;;;12.20;99.90;;;;;;5010558;28;20386;-44
2022/07/08 03:52:57;;;;;;;10.20;3.15;;;12.30;99.90;;;;;;5012828;28;20071;-45
2022/07/08 03:55:25;;;;;;;14.15;3.22;;;12.30;99.90;;;;;;4987373;28;20056;-42
2022/07/08 03:57:51;;;;;;;6.70;2.83;;;12.40;99.90;;;;;;5019348;28;20411;-46
2022/07/08 04:00:19;;;;;;;9.95;3.33;;;12.50;99.90;;;;;;5009602;28;20054;-44
2022/07/08 04:02:45;;;;;;;8.25;3.35;;;12.70;99.90;;;;;;5011037;28;20124;-44
2022/07/08 04:05:12;;;;;;;8.27;2.83;;;13.30;99.90;;;;;;5013606;28;20103;-43
2022/07/08 04:07:38;;;;;;;7.60;2.70;;;14.10;99.90;;;;;;5019098;28;20133;-44
2022/07/08 04:10:04;;;;;;;9.30;2.90;;;14.60;99.90;;;;;;5008016;28;20053;-46
2022/07/08 04:12:30;;;;;;;14.52;3.63;;;14.60;99.90;;;;;;5017657;28;20049;-47
2022/07/08 04:14:56;;;;;;;9.27;2.67;;;14.50;99.90;;;;;;5015488;28;20057;-44
2022/07/08 04:17:22;;;;;;;12.85;3.10;;;14.30;99.90;;;;;;5008047;28;20049;-43
2022/07/08 04:19:47;;;;;;;11.70;3.22;;;14.10;99.90;;;;;;4991626;28;20050;-45
2022/07/08 04:22:13;;;;;;;10.32;3.20;;;14.00;99.90;;;;;;4991588;28;20564;-44
2022/07/08 04:24:38;;;;;;;13.70;3.63;;;13.90;99.90;;;;;;5014718;28;20053;-44
2022/07/08 04:27:04;;;;;;;9.43;2.83;;;13.90;99.90;;;;;;5014304;28;20123;-43
2022/07/08 04:29:30;;;;;;;13.00;3.20;;;13.90;99.90;;;;;;5011105;28;20050;-44
2022/07/08 04:31:56;;;;;;;11.95;2.92;;;13.90;99.90;;;;;;5016002;28;20050;-43
2022/07/08 04:34:21;;;;;;;12.48;3.55;;;13.90;99.90;;;;;;5019093;28;20045;-43
2022/07/08 04:36:47;;;;;;;11.20;2.83;;;13.90;99.90;;;;;;4995096;28;20054;-44
2022/07/08 04:39:12;;;;;;;11.27;2.92;;;13.90;99.90;;;;;;5004817;28;20046;-44
2022/07/08 04:41:38;;;;;;;9.38;3.13;;;13.90;99.90;;;;;;5007400;28;20453;-44
2022/07/08 04:44:09;;;;;;;14.38;2.85;;;14.00;99.90;;;;;;5015394;28;20057;-44
2022/07/08 04:46:35;;;;;;;11.18;3.55;;;14.00;99.90;;;;;;5011149;28;20441;-43
2022/07/08 04:49:01;;;;;;;9.05;2.58;;;14.00;99.90;;;;;;5011349;28;20139;-43
2022/07/08 04:51:27;;;;;;;11.57;2.88;;;14.00;99.90;;;;;;5014369;28;20132;-43
2022/07/08 04:53:53;;;;;;;9.88;3.00;;;14.10;99.90;;;;;;5018679;28;20593;-43
2022/07/08 04:56:19;;;;;;;10.05;3.15;;;14.20;99.90;;;;;;5016489;28;20045;-43
2022/07/08 04:58:45;;;;;;;10.18;2.85;;;14.20;99.90;;;;;;5008059;28;20081;-43
2022/07/08 05:01:10;;;;;;;9.07;3.17;;;14.30;99.90;;;;;;5004692;28;20100;-44
2022/07/08 05:03:36;;;;;;;11.10;3.05;;;14.30;99.90;;;;;;5014759;28;20053;-44
2022/07/08 05:06:02;;;;;;;10.82;3.03;;;14.40;99.90;;;;;;5006805;28;20046;-44
2022/07/08 05:08:28;;;;;;;11.57;3.20;;;14.40;99.90;;;;;;5010629;28;20081;-43
2022/07/08 05:10:53;;;;;;;13.13;2.92;;;14.50;99.90;;;;;;4990456;28;20057;-44
2022/07/08 05:13:19;;;;;;;14.43;3.33;;;14.60;99.90;;;;;;5018511;28;20045;-43
2022/07/08 05:15:45;;;;;;;11.60;3.00;;;14.70;99.90;;;;;;5009230;28;20049;-44
2022/07/08 05:18:11;;;;;;;10.20;2.78;;;14.80;99.90;;;;;;5013577;28;20424;-44
2022/07/08 05:20:37;;;;;;;11.57;2.78;;;15.00;99.90;;;;;;5001516;28;20437;-44
2022/07/08 05:23:03;;;;;;;12.18;3.13;;;15.80;99.90;;;;;;5013288;28;20053;-46
2022/07/08 05:25:29;;;;;;;8.52;3.15;;;16.40;99.90;;;;;;5009936;28;20045;-50
2022/07/08 05:27:55;;;;;;;7.38;2.78;;;16.90;99.90;;;;;;5005531;28;20083;-42
2022/07/08 05:30:21;;;;;;;12.85;3.47;;;17.60;99.90;;;;;;5012978;28;20045;-42
2022/07/08 05:32:46;;;;;;;9.18;2.95;;;18.20;99.90;;;;;;5017210;28;20053;-44
2022/07/08 05:35:12;;;;;;;8.35;2.50;;;18.90;99.90;;;;;;5014949;28;20444;-45
2022/07/08 05:37:38;;;;;;;10.75;2.60;;;19.60;99.90;;;;;;5016533;28;20060;-43
2022/07/08 05:40:08;;;;;;;9.43;2.50;;;19.90;99.90;;;;;;5012643;28;20060;-43
2022/07/08 05:42:34;;;;;;;9.73;3.08;;;20.00;99.90;;;;;;5014520;28;20072;-44
2022/07/08 05:45:00;;;;;;;11.48;2.50;;;19.50;99.90;;;;;;4994701;28;20504;-45
2022/07/08 05:47:26;;;;;;;11.52;2.53;;;19.10;99.90;;;;;;5004618;28;20133;-46
2022/07/08 05:49:52;;;;;;;10.30;2.60;;;18.70;99.90;;;;;;5015778;28;20080;-44
2022/07/08 05:52:21;;;;;;;8.10;2.78;;;18.40;99.90;;;;;;5013977;28;20041;-43
2022/07/08 05:54:46;;;;;;;13.50;2.65;;;18.20;99.90;;;;;;5016719;28;20077;-43
2022/07/08 05:57:13;;;;;;;13.32;2.70;;;18.10;99.90;;;;;;5008774;28;20073;-43
2022/07/08 05:59:39;;;;;;;11.30;3.10;;;18.10;99.90;;;;;;5008565;28;20113;-44
2022/07/08 06:02:05;;;;;;;9.73;2.53;;;18.30;99.90;;;;;;5010061;28;20492;-43
2022/07/08 06:04:31;;;;;;;8.30;2.60;;;18.40;99.90;;;;;;4974506;28;20057;-43
2022/07/08 06:06:57;;;;;;;12.13;3.35;;;18.50;99.90;;;;;;5005370;28;20056;-43
2022/07/08 06:09:23;;;;;;;13.15;2.60;;;18.50;99.90;;;;;;5013590;28;20046;-43
2022/07/08 06:11:50;;;;;;;11.20;3.60;;;18.50;99.90;;;;;;4996678;28;20080;-44
2022/07/08 06:14:17;;;;;;;14.10;3.25;;;18.50;99.90;;;;;;5014931;28;20053;-43
2022/07/08 06:16:43;;;;;;;9.13;2.25;;;18.50;99.90;;;;;;5010711;28;20053;-44
2022/07/08 06:19:09;;;;;;;11.43;3.30;;;18.50;99.90;;;;;;5007387;28;20054;-44
2022/07/08 06:21:35;;;;;;;13.48;3.42;;;18.70;99.90;;;;;;5010391;28;20524;-43
2022/07/08 06:24:01;;;;;;;10.57;2.90;;;18.90;99.90;;;;;;5003218;28;20054;-44
2022/07/08 06:26:27;;;;;;;8.15;2.25;;;19.00;99.90;;;;;;5015065;28;20060;-44
2022/07/08 06:28:53;;;;;;;14.38;3.80;;;19.10;99.90;;;;;;5007399;28;20056;-44
2022/07/08 06:31:18;;;;;;;9.95;3.00;;;19.20;99.90;;;;;;5015955;28;20049;-44
2022/07/08 06:33:44;;;;;;;12.10;3.38;;;19.20;99.90;;;;;;5012978;28;20099;-44
2022/07/08 06:36:15;;;;;;;16.17;3.58;;;19.20;99.90;;;;;;5016945;28;20072;-46
2022/07/08 06:38:41;;;;;;;13.52;3.53;;;19.10;99.90;;;;;;4988818;28;20077;-47
2022/07/08 06:41:07;;;;;;;9.88;2.95;;;19.00;99.90;;;;;;5003361;28;20125;-44
2022/07/08 06:43:32;;;;;;;12.32;3.63;;;19.00;99.90;;;;;;5013523;28;20087;-44
2022/07/08 06:45:58;;;;;;;8.68;3.35;;;19.20;99.90;;;;;;4992343;28;20100;-46
2022/07/08 06:48:25;;;;;;;8.52;2.67;;;19.20;99.90;;;;;;5019774;28;20467;-44
2022/07/08 06:50:50;;;;;;;12.18;3.35;;;19.20;99.90;;;;;;5006480;28;20054;-43
2022/07/08 06:53:16;;;;;;;10.43;3.00;;;19.20;99.90;;;;;;5018384;28;20053;-44
2022/07/08 06:55:42;;;;;;;13.43;3.05;;;19.20;99.90;;;;;;5014785;28;20499;-44
2022/07/08 06:58:07;;;;;;;9.93;3.42;;;19.10;99.90;;;;;;5021485;28;20164;-44
2022/07/08 07:00:33;;;;;;;12.95;3.20;;;19.10;99.90;;;;;;5012109;28;20384;-44
2022/07/08 07:02:59;;;;;;;9.80;2.83;;;19.20;99.90;;;;;;5008132;28;20054;-44
2022/07/08 07:05:25;;;;;;;11.07;3.47;;;19.30;99.90;;;;;;5009215;28;20542;-45
2022/07/08 07:07:50;;;;;;;10.60;3.22;;;19.50;99.90;;;;;;5008581;28;20052;-47
2022/07/08 07:10:16;;;;;;;10.02;3.42;;;19.60;99.90;;;;;;5007522;28;20077;-43
2022/07/08 07:12:42;;;;;;;12.10;3.90;;;19.70;99.90;;;;;;5008323;28;20049;-44
2022/07/08 07:15:08;;;;;;;11.43;3.63;;;19.70;99.90;;;;;;5013944;28;20440;-44
2022/07/08 07:17:35;;;;;;;7.63;2.33;;;19.70;99.90;;;;;;5007447;28;20068;-45
2022/07/08 07:20:00;;;;;;;12.32;2.63;;;19.70;99.90;;;;;;5008813;28;20042;-43
2022/07/08 07:22:26;;;;;;;7.68;2.55;;;19.80;99.90;;;;;;5013664;28;20143;-47
2022/07/08 07:24:52;;;;;;;9.57;2.53;;;19.70;99.90;;;;;;5014782;28;20045;-43
2022/07/08 07:27:18;;;;;;;7.47;2.15;;;19.70;99.90;;;;;;5013427;28;20473;-43
2022/07/08 07:29:44;;;;;;;8.52;2.50;;;19.70;99.90;;;;;;5006452;28;20104;-43
2022/07/08 07:32:09;;;;;;;9.20;2.90;;;19.80;99.90;;;;;;5012893;28;20131;-43
2022/07/08 07:34:35;;;;;;;10.40;2.70;;;19.90;99.90;;;;;;5008913;28;20140;-43
2022/07/08 07:37:01;;;;;;;11.52;3.08;;;20.00;99.90;;;;;;5013258;28;20492;-43
2022/07/08 07:39:27;;;;;;;8.73;2.50;;;20.10;99.90;;;;;;5013721;28;20033;-43
2022/07/08 07:41:52;;;;;;;12.52;2.85;;;20.30;99.90;;;;;;5008885;28;20138;-43
2022/07/08 07:44:18;;;;;;;11.95;2.90;;;20.50;99.90;;;;;;5006095;28;20050;-44
2022/07/08 07:46:44;;;;;;;11.15;3.10;;;20.70;99.90;;;;;;5009588;28;20056;-44
2022/07/08 07:49:11;;;;;;;9.38;2.67;;;20.70;99.90;;;;;;5006911;28;20056;-44
2022/07/08 07:51:37;;;;;;;7.70;2.42;;;20.80;99.90;;;;;;5017304;28;20119;-44
2022/07/08 07:54:02;;;;;;;14.20;3.33;;;20.70;99.90;;;;;;5008564;28;20050;-45
2022/07/08 07:56:28;;;;;;;10.10;3.20;;;20.70;99.90;;;;;;5020665;28;20081;-45
2022/07/08 07:58:54;;;;;;;9.07;2.58;;;20.70;99.90;;;;;;5008394;28;20049;-47
2022/07/08 08:01:20;;;;;;;10.43;2.83;;;20.70;99.90;;;;;;5010288;28;20835;-46
2022/07/08 08:03:45;;;;;;;10.48;2.85;;;20.60;99.90;;;;;;5017914;28;20053;-45
2022/07/08 08:06:11;;;;;;;10.23;3.30;;;20.60;99.90;;;;;;5007678;28;20069;-43
2022/07/08 08:08:37;;;;;;;9.18;3.28;;;20.70;99.90;;;;;;4994499;28;20106;-45
2022/07/08 08:11:03;;;;;;;13.63;3.13;;;20.70;99.90;;;;;;5016820;28;20068;-44
2022/07/08 08:13:29;;;;;;;8.95;3.40;;;20.70;99.90;;;;;;5009757;28;20412;-45
2022/07/08 08:15:56;;;;;;;10.90;3.78;;;20.80;99.90;;;;;;5006325;28;20618;-44
2022/07/08 08:18:22;;;;;;;12.55;2.95;;;20.70;99.90;;;;;;5015075;28;20473;-45
2022/07/08 08:20:48;;;;;;;9.88;2.85;;;20.70;99.90;;;;;;5012421;28;20052;-45
2022/07/08 08:23:14;;;;;;;9.43;3.13;;;20.70;99.90;;;;;;5018380;28;20095;-44
2022/07/08 08:25:41;;;;;;;9.85;3.30;;;20.80;99.90;;;;;;5015173;28;20038;-44
2022/07/08 08:28:07;;;;;;;11.57;3.15;;;20.80;99.90;;;;;;5013166;28;20049;-44
2022/07/08 08:30:32;;;;;;;9.45;2.70;;;20.90;99.90;;;;;;5011040;28;20388;-43
2022/07/08 08:32:58;;;;;;;11.52;2.42;;;21.00;99.90;;;;;;5017048;28;20516;-43
2022/07/08 08:35:24;;;;;;;8.48;2.75;;;21.10;99.90;;;;;;4997184;28;20049;-47
2022/07/08 08:37:51;;;;;;;9.30;2.92;;;21.10;99.90;;;;;;5005318;28;20041;-44
2022/07/08 08:40:20;;;;;;;10.15;2.88;;;21.20;99.90;;;;;;5007525;28;20081;-45
2022/07/08 08:42:45;;;;;;;11.23;2.78;;;21.10;99.90;;;;;;5014979;28;20053;-44
2022/07/08 08:45:11;;;;;;;9.57;2.72;;;21.00;99.90;;;;;;4995399;28;20041;-45
2022/07/08 08:47:37;;;;;;;8.70;2.97;;;20.90;99.90;;;;;;5014352;28;20053;-43
2022/07/08 08:52:52;;;;;;;9.80;2.65;;;20.90;99.90;;;;;;5012585;28;20468;-43
2022/07/08 08:55:32;;;;;;;7.68;2.35;;;21.00;99.90;;;;;;4997364;28;20045;-44
2022/07/08 08:57:59;;;;;;;9.45;2.45;;;21.20;99.90;;;;;;5006642;28;20498;-44
2022/07/08 09:00:27;;;;;;;10.48;2.53;;;21.30;99.90;;;;;;5013749;28;20568;-46
2022/07/08 09:02:53;;;;;;;10.15;2.70;;;21.40;99.90;;;;;;5016868;28;20451;-44
2022/07/08 09:05:21;;;;;;;11.35;3.38;;;21.50;99.90;;;;;;5004928;28;20045;-44
2022/07/08 09:07:47;;;;;;;10.77;2.83;;;21.60;99.90;;;;;;5008386;28;20053;-44
2022/07/08 09:10:15;;;;;;;7.40;2.63;;;21.90;99.90;;;;;;5009077;28;20046;-44
2022/07/08 09:13:00;;;;;;;7.65;2.22;;;22.10;99.90;;;;;;5015392;28;20204;-45
2022/07/08 09:15:33;;;;;;;9.82;2.92;;;22.10;99.90;;;;;;5014099;28;20068;-45
2022/07/08 09:18:00;;;;;;;9.05;2.85;;;22.20;99.90;;;;;;5016652;28;20056;-45
2022/07/08 09:20:40;;;;;;;8.45;2.53;;;22.20;99.90;;;;;;5012886;28;20046;-43
2022/07/08 09:23:12;;;;;;;6.65;2.35;;;22.30;99.90;;;;;;5016927;28;20049;-43
2022/07/08 09:25:38;;;;;;;6.35;2.45;;;22.40;99.90;;;;;;5004474;28;20058;-43
2022/07/08 09:28:04;;;;;;;7.10;2.25;;;22.60;99.90;;;;;;5013657;28;20049;-43
2022/07/08 09:30:30;;;;;;;4.00;1.92;;;22.80;99.90;;;;;;5015308;28;20049;-45
2022/07/08 09:32:58;;;;;;;7.40;2.22;;;22.90;99.90;;;;;;5013412;28;20088;-44
2022/07/08 09:35:50;;;;;;;8.30;2.25;;;22.90;99.90;;;;;;5010026;28;20045;-44
2022/07/08 09:38:20;;;;;;;6.63;2.45;;;22.80;99.90;;;;;;5013568;28;20053;-43
2022/07/08 09:41:03;;;;;;;6.60;2.55;;;22.90;99.90;;;;;;5013793;28;20068;-43
2022/07/08 09:43:29;;;;;;;7.88;2.33;;;22.90;99.90;;;;;;5011666;28;20056;-43
2022/07/08 09:46:05;;;;;;;6.95;2.30;;;22.80;99.90;;;;;;5013371;28;20056;-44
2022/07/08 09:48:31;;;;;;;8.20;2.50;;;22.80;99.90;;;;;;5001173;28;20045;-44
2022/07/08 09:51:00;;;;;;;6.07;2.53;;;22.70;99.90;;;;;;4991468;28;20067;-44
2022/07/08 09:53:27;;;;;;;8.05;2.80;;;22.90;99.90;;;;;;5016119;28;20061;-45
2022/07/08 09:55:55;;;;;;;8.77;2.65;;;22.90;99.90;;;;;;4995674;28;20175;-46
2022/07/08 09:58:23;;;;;;;7.70;2.53;;;22.70;99.90;;;;;;5014678;28;20068;-43
2022/07/08 10:00:51;;;;;;;9.75;2.47;;;22.70;99.90;;;;;;5020534;28;20107;-44
2022/07/08 10:03:18;;;;;;;5.70;1.85;;;22.90;99.90;;;;;;5020371;28;20041;-44
2022/07/08 10:05:44;;;;;;;6.22;2.17;;;23.10;99.90;;;;;;5013956;28;20045;-45
2022/07/08 10:08:10;;;;;;;7.80;2.40;;;23.20;99.90;;;;;;5015193;28;20500;-44
2022/07/08 10:10:38;;;;;;;5.35;2.25;;;23.40;99.90;;;;;;5019444;28;20081;-44
2022/07/08 10:13:05;;;;;;;8.32;2.55;;;23.20;99.90;;;;;;5013109;28;20060;-46
2022/07/08 10:15:34;;;;;;;8.38;2.53;;;23.10;99.90;;;;;;5001818;28;20045;-44
2022/07/08 10:18:20;;;;;;;8.60;2.78;;;23.20;99.90;;;;;;5012134;28;20625;-45
2022/07/08 10:21:07;;;;;;;7.53;3.00;;;23.30;99.90;;;;;;5019235;28;20085;-45
2022/07/08 10:23:39;;;;;;;7.05;2.55;;;23.30;99.90;;;;;;5012754;28;20140;-44
2022/07/08 10:26:06;;;;;;;;;;;23.40;99.90;;;;;;5016087;28;20054;-46
2022/07/08 10:28:36;;;;;;;11.27;2.85;;;23.30;99.90;;;;;;5012345;28;19921;-43
2022/07/08 10:31:03;;;;;;;11.15;2.70;;;23.40;99.90;;;;;;5022649;28;20139;-44
2022/07/08 10:33:30;;;;;;;14.40;3.55;;;23.40;99.90;;;;;;5017926;28;20049;-50
2022/07/08 10:36:07;;;;;;;7.45;2.10;;;23.40;99.90;;;;;;5018331;28;20052;-49
2022/07/08 10:38:39;;;;;;;9.05;2.63;;;23.50;99.90;;;;;;5020491;28;20053;-45
2022/07/08 10:41:26;;;;;;;7.05;2.55;;;23.70;99.90;;;;;;5014126;28;20389;-44
2022/07/08 10:44:02;;;;;;;6.97;2.55;;;23.80;99.90;;;;;;5018222;28;20045;-44
2022/07/08 10:46:28;;;;;;;7.55;2.53;;;23.90;99.90;;;;;;5002822;28;20049;-43
2022/07/08 10:48:57;;;;;;;10.25;3.08;;;23.80;99.90;;;;;;5016424;28;20057;-47
2022/07/08 10:51:24;;;;;;;6.20;2.55;;;23.60;99.90;;;;;;4997492;28;20111;-47
2022/07/08 10:53:52;;;;;;;6.78;2.67;;;23.60;99.90;;;;;;5016213;28;20569;-44
2022/07/08 10:56:54;;;;;;;6.68;2.60;;;23.60;99.90;;;;;;5016117;28;20041;-46
2022/07/08 10:59:27;;;;;;;8.02;3.05;;;23.60;99.90;;;;;;5001685;28;20061;-44
2022/07/08 11:02:07;;;;;;;11.15;3.38;;;23.40;99.90;;;;;;5016686;28;20049;-45
2022/07/08 11:04:36;;;;;;;8.52;2.95;;;23.30;99.90;;;;;;5013844;28;20053;-44
2022/07/08 11:07:17;;;;;;;8.52;3.15;;;23.30;99.90;;;;;;5014329;28;20054;-44
2022/07/08 11:09:46;;;;;;;10.50;3.33;;;23.30;99.90;;;;;;5013377;28;20140;-44
2022/07/08 11:12:13;;;;;;;7.93;2.85;;;23.20;99.90;;;;;;5010740;28;20045;-44
2022/07/08 11:14:46;;;;;;;6.40;2.40;;;23.00;99.90;;;;;;4991408;28;20422;-44
2022/07/08 11:17:26;;;;;;;10.50;2.88;;;23.20;99.90;;;;;;5012746;28;20095;-43
2022/07/08 11:19:56;;;;;;;7.18;2.72;;;23.30;99.90;;;;;;5011956;28;20523;-45
2022/07/08 11:22:24;;;;;;;7.70;2.55;;;23.30;99.90;;;;;;5013385;28;20049;-45
2022/07/08 11:24:51;;;;;;;8.25;3.35;;;23.50;99.90;;;;;;5005653;28;20655;-44
2022/07/08 11:27:24;;;;;;;6.95;2.90;;;23.70;99.90;;;;;;5015478;28;20534;-45
2022/07/08 11:29:52;;;;;;;7.93;3.35;;;23.80;99.90;;;;;;5010678;28;20049;-47
2022/07/08 11:32:19;;;;;;;10.68;3.60;;;23.80;99.90;;;;;;5014396;28;20507;-44
2022/07/08 11:34:46;;;;;;;10.90;3.95;;;23.90;99.90;;;;;;5014630;28;20060;-47
2022/07/08 11:37:12;;;;;;;9.93;3.72;;;23.90;99.90;;;;;;5011787;28;20127;-44
2022/07/08 11:39:39;;;;;;;14.15;4.50;;;23.90;99.90;;;;;;5016613;28;20480;-45
2022/07/08 11:42:05;;;;;;;10.52;4.03;;;23.90;99.90;;;;;;5011933;28;20399;-44
2022/07/08 11:44:31;;;;;;;10.27;4.20;;;23.70;99.90;;;;;;5015349;28;20045;-45
2022/07/08 11:46:57;;;;;;;11.35;4.38;;;23.90;99.90;;;;;;5011340;28;20045;-46
2022/07/08 11:49:24;;;;;;;8.27;3.55;;;23.80;99.90;;;;;;5015716;28;20049;-45
2022/07/08 11:51:51;;;;;;;9.70;4.28;;;23.80;99.90;;;;;;5016429;28;20049;-45
2022/07/08 11:54:21;;;;;;;10.70;4.10;;;23.90;99.90;;;;;;5014507;28;20046;-44
2022/07/08 11:56:47;;;;;;;11.85;4.82;;;24.00;99.90;;;;;;5015832;28;20559;-47
2022/07/08 11:59:25;;;;;;;10.88;4.35;;;24.20;99.90;;;;;;5013555;28;20522;-45
2022/07/08 12:01:54;;;;;;;10.70;4.18;;;24.40;99.90;;;;;;5014522;28;20252;-47
2022/07/08 12:04:21;;;;;;;11.55;5.13;;;24.50;99.90;;;;;;5014214;28;20053;-44
2022/07/08 12:06:48;;;;;;;10.38;4.30;;;24.40;99.90;;;;;;4995735;28;20111;-46
2022/07/08 12:09:18;;;;;;;10.68;4.22;;;24.50;99.90;;;;;;4994444;28;20061;-46
2022/07/08 12:11:46;;;;;;;8.52;4.10;;;24.60;99.90;;;;;;5013186;28;20050;-44
2022/07/08 12:14:12;;;;;;;12.32;4.35;;;24.60;99.90;;;;;;5016687;28;20115;-46
2022/07/08 12:16:55;;;;;;;15.35;4.63;;;24.60;99.90;;;;;;4996747;28;20400;-45
2022/07/08 12:19:34;;;;;;;11.60;3.92;;;24.40;99.90;;;;;;5012841;28;20159;-45
2022/07/08 12:22:02;;;;;;;10.80;4.22;;;24.20;99.90;;;;;;4996650;28;20041;-45
2022/07/08 12:24:34;;;;;;;15.35;4.20;;;24.10;99.90;;;;;;5012906;28;20085;-44
2022/07/08 12:27:01;;;;;;;10.93;3.95;;;24.20;99.90;;;;;;5014436;28;20041;-44
2022/07/08 12:29:36;;;;;;;8.13;3.80;;;24.30;99.90;;;;;;5012792;28;20056;-44
2022/07/08 12:32:06;;;;;;;11.15;4.93;;;24.40;99.90;;;;;;5014126;28;20121;-43
2022/07/08 12:34:32;;;;;;;9.95;4.03;;;24.40;99.90;;;;;;5016950;28;20528;-45
2022/07/08 12:37:19;;;;;;;13.27;4.10;;;24.30;99.90;;;;;;5022074;28;20089;-46
2022/07/08 12:39:45;;;;;;;12.00;4.43;;;24.30;99.90;;;;;;5022591;28;20079;-44
2022/07/08 12:42:11;;;;;;;12.57;4.57;;;24.20;99.90;;;;;;5005275;28;20059;-45
2022/07/08 12:44:42;;;;;;;10.70;4.00;;;24.10;99.90;;;;;;5021066;28;20049;-45
2022/07/08 12:47:12;;;;;;;9.90;4.25;;;24.10;99.90;;;;;;5006674;28;20160;-45
2022/07/08 12:49:40;;;;;;;10.57;4.25;;;24.10;99.90;;;;;;5026279;28;20080;-44
2022/07/08 12:52:08;;;;;;;12.70;4.50;;;24.10;99.90;;;;;;5026053;28;20149;-44